sensor_id;sensor_type;location;lat;lon;timestamp;P1;durP1;ratioP1;P2;durP2;ratioP2
6392;SDS011;3229;42.674;23.282;2023-12-20T00:02:18;44.13;;;27.03;;
6392;SDS011;3229;42.674;23.282;2023-12-20T00:04:45;41.30;;;25.87;;
6392;SDS011;3229;42.674;23.282;2023-12-20T00:07:11;45.43;;;26.33;;
6392;SDS011;3229;42.674;23.282;2023-12-20T00:09:38;47.23;;;28.13;;
6392;SDS011;3229;42.674;23.282;2023-12-20T00:12:05;42.87;;;27.73;;
6392;SDS011;3229;42.674;23.282;2023-12-20T00:14:32;45.80;;;26.97;;
6392;SDS011;3229;42.674;23.282;2023-12-20T00:17:00;53.83;;;30.73;;
6392;SDS011;3229;42.674;23.282;2023-12-20T00:19:27;44.10;;;28.43;;
6392;SDS011;3229;42.674;23.282;2023-12-20T00:21:54;51.03;;;29.37;;
6392;SDS011;3229;42.674;23.282;2023-12-20T00:24:20;46.47;;;28.87;;
6392;SDS011;3229;42.674;23.282;2023-12-20T00:26:47;52.30;;;30.17;;
6392;SDS011;3229;42.674;23.282;2023-12-20T00:29:14;49.60;;;29.43;;
6392;SDS011;3229;42.674;23.282;2023-12-20T00:31:40;53.77;;;31.17;;
6392;SDS011;3229;42.674;23.282;2023-12-20T00:34:09;50.50;;;30.70;;
6392;SDS011;3229;42.674;23.282;2023-12-20T00:36:35;49.07;;;31.60;;
6392;SDS011;3229;42.674;23.282;2023-12-20T00:39:03;49.50;;;30.43;;
6392;SDS011;3229;42.674;23.282;2023-12-20T00:41:29;49.80;;;31.40;;
6392;SDS011;3229;42.674;23.282;2023-12-20T00:43:56;50.03;;;30.73;;
6392;SDS011;3229;42.674;23.282;2023-12-20T00:46:23;48.60;;;30.00;;
6392;SDS011;3229;42.674;23.282;2023-12-20T00:48:50;54.97;;;33.40;;
6392;SDS011;3229;42.674;23.282;2023-12-20T00:51:18;51.93;;;32.47;;
6392;SDS011;3229;42.674;23.282;2023-12-20T00:53:44;55.33;;;33.43;;
6392;SDS011;3229;42.674;23.282;2023-12-20T00:56:14;50.00;;;31.27;;
6392;SDS011;3229;42.674;23.282;2023-12-20T00:58:41;52.83;;;32.87;;
6392;SDS011;3229;42.674;23.282;2023-12-20T01:01:08;52.63;;;31.83;;
6392;SDS011;3229;42.674;23.282;2023-12-20T01:03:33;56.73;;;32.17;;
6392;SDS011;3229;42.674;23.282;2023-12-20T01:06:01;49.07;;;30.27;;
6392;SDS011;3229;42.674;23.282;2023-12-20T01:08:31;49.50;;;32.57;;
6392;SDS011;3229;42.674;23.282;2023-12-20T01:10:59;53.07;;;32.73;;
6392;SDS011;3229;42.674;23.282;2023-12-20T01:13:26;51.17;;;31.53;;
6392;SDS011;3229;42.674;23.282;2023-12-20T01:15:53;53.67;;;33.40;;
6392;SDS011;3229;42.674;23.282;2023-12-20T01:18:20;53.27;;;32.40;;
6392;SDS011;3229;42.674;23.282;2023-12-20T01:20:47;49.20;;;32.37;;
6392;SDS011;3229;42.674;23.282;2023-12-20T01:23:14;51.37;;;30.80;;
6392;SDS011;3229;42.674;23.282;2023-12-20T01:25:42;59.73;;;33.03;;
6392;SDS011;3229;42.674;23.282;2023-12-20T01:28:09;51.27;;;31.97;;
6392;SDS011;3229;42.674;23.282;2023-12-20T01:30:35;52.47;;;30.93;;
6392;SDS011;3229;42.674;23.282;2023-12-20T01:33:02;45.93;;;30.37;;
6392;SDS011;3229;42.674;23.282;2023-12-20T01:35:29;55.23;;;30.60;;
6392;SDS011;3229;42.674;23.282;2023-12-20T01:37:56;49.83;;;31.10;;
6392;SDS011;3229;42.674;23.282;2023-12-20T01:40:23;56.33;;;30.87;;
6392;SDS011;3229;42.674;23.282;2023-12-20T01:42:58;46.47;;;29.27;;
6392;SDS011;3229;42.674;23.282;2023-12-20T01:45:26;45.87;;;30.73;;
6392;SDS011;3229;42.674;23.282;2023-12-20T01:47:52;50.50;;;29.70;;
6392;SDS011;3229;42.674;23.282;2023-12-20T01:50:20;47.00;;;29.20;;
6392;SDS011;3229;42.674;23.282;2023-12-20T01:52:47;48.07;;;29.33;;
6392;SDS011;3229;42.674;23.282;2023-12-20T01:55:17;45.90;;;28.97;;
6392;SDS011;3229;42.674;23.282;2023-12-20T01:57:44;47.97;;;29.47;;
6392;SDS011;3229;42.674;23.282;2023-12-20T02:00:14;41.03;;;27.20;;
6392;SDS011;3229;42.674;23.282;2023-12-20T02:02:41;49.83;;;30.40;;
6392;SDS011;3229;42.674;23.282;2023-12-20T02:05:11;46.70;;;26.80;;
6392;SDS011;3229;42.674;23.282;2023-12-20T02:07:39;50.13;;;28.73;;
6392;SDS011;3229;42.674;23.282;2023-12-20T02:10:06;44.60;;;27.13;;
6392;SDS011;3229;42.674;23.282;2023-12-20T02:12:33;44.37;;;27.97;;
6392;SDS011;3229;42.674;23.282;2023-12-20T02:15:00;49.53;;;27.50;;
6392;SDS011;3229;42.674;23.282;2023-12-20T02:17:28;45.97;;;27.20;;
6392;SDS011;3229;42.674;23.282;2023-12-20T02:19:56;46.33;;;27.30;;
6392;SDS011;3229;42.674;23.282;2023-12-20T02:22:24;45.87;;;27.97;;
6392;SDS011;3229;42.674;23.282;2023-12-20T02:24:51;49.40;;;27.07;;
6392;SDS011;3229;42.674;23.282;2023-12-20T02:27:18;44.40;;;27.03;;
6392;SDS011;3229;42.674;23.282;2023-12-20T02:29:46;41.53;;;25.03;;
6392;SDS011;3229;42.674;23.282;2023-12-20T02:32:14;41.83;;;25.00;;
6392;SDS011;3229;42.674;23.282;2023-12-20T02:34:40;42.23;;;26.17;;
6392;SDS011;3229;42.674;23.282;2023-12-20T02:37:07;40.60;;;25.03;;
6392;SDS011;3229;42.674;23.282;2023-12-20T02:39:35;35.93;;;21.73;;
6392;SDS011;3229;42.674;23.282;2023-12-20T02:42:02;41.80;;;24.93;;
6392;SDS011;3229;42.674;23.282;2023-12-20T02:44:29;44.30;;;23.80;;
6392;SDS011;3229;42.674;23.282;2023-12-20T02:46:56;34.97;;;22.53;;
6392;SDS011;3229;42.674;23.282;2023-12-20T02:49:23;38.57;;;23.07;;
6392;SDS011;3229;42.674;23.282;2023-12-20T02:51:50;36.07;;;21.93;;
6392;SDS011;3229;42.674;23.282;2023-12-20T02:54:16;34.73;;;21.17;;
6392;SDS011;3229;42.674;23.282;2023-12-20T02:56:44;35.57;;;22.20;;
6392;SDS011;3229;42.674;23.282;2023-12-20T02:59:11;36.83;;;20.10;;
6392;SDS011;3229;42.674;23.282;2023-12-20T03:01:41;29.80;;;20.50;;
6392;SDS011;3229;42.674;23.282;2023-12-20T03:04:08;35.33;;;20.07;;
6392;SDS011;3229;42.674;23.282;2023-12-20T03:06:35;31.23;;;19.30;;
6392;SDS011;3229;42.674;23.282;2023-12-20T03:09:02;34.50;;;19.43;;
6392;SDS011;3229;42.674;23.282;2023-12-20T03:11:29;31.07;;;19.30;;
6392;SDS011;3229;42.674;23.282;2023-12-20T03:13:57;29.13;;;18.73;;
6392;SDS011;3229;42.674;23.282;2023-12-20T03:16:24;33.80;;;19.40;;
6392;SDS011;3229;42.674;23.282;2023-12-20T03:18:51;33.43;;;18.37;;
6392;SDS011;3229;42.674;23.282;2023-12-20T03:21:17;29.97;;;18.23;;
6392;SDS011;3229;42.674;23.282;2023-12-20T03:23:44;31.70;;;18.57;;
6392;SDS011;3229;42.674;23.282;2023-12-20T03:26:11;30.03;;;19.03;;
6392;SDS011;3229;42.674;23.282;2023-12-20T03:28:38;31.50;;;19.23;;
6392;SDS011;3229;42.674;23.282;2023-12-20T03:31:06;32.37;;;19.40;;
6392;SDS011;3229;42.674;23.282;2023-12-20T03:33:33;32.87;;;19.20;;
6392;SDS011;3229;42.674;23.282;2023-12-20T03:36:00;36.53;;;19.57;;
6392;SDS011;3229;42.674;23.282;2023-12-20T03:38:26;28.47;;;18.87;;
6392;SDS011;3229;42.674;23.282;2023-12-20T03:40:53;34.77;;;20.97;;
6392;SDS011;3229;42.674;23.282;2023-12-20T03:43:20;31.20;;;20.50;;
6392;SDS011;3229;42.674;23.282;2023-12-20T03:45:47;34.60;;;20.30;;
6392;SDS011;3229;42.674;23.282;2023-12-20T03:48:15;34.00;;;21.00;;
6392;SDS011;3229;42.674;23.282;2023-12-20T03:50:41;34.90;;;21.43;;
6392;SDS011;3229;42.674;23.282;2023-12-20T03:53:08;35.90;;;21.57;;
6392;SDS011;3229;42.674;23.282;2023-12-20T03:55:35;35.13;;;21.03;;
6392;SDS011;3229;42.674;23.282;2023-12-20T03:58:02;34.90;;;22.23;;
6392;SDS011;3229;42.674;23.282;2023-12-20T04:00:29;34.40;;;22.07;;
6392;SDS011;3229;42.674;23.282;2023-12-20T04:02:55;35.67;;;21.67;;
6392;SDS011;3229;42.674;23.282;2023-12-20T04:05:23;39.83;;;24.07;;
6392;SDS011;3229;42.674;23.282;2023-12-20T04:07:50;37.23;;;22.93;;
6392;SDS011;3229;42.674;23.282;2023-12-20T04:10:17;37.27;;;22.03;;
6392;SDS011;3229;42.674;23.282;2023-12-20T04:12:44;38.97;;;23.33;;
6392;SDS011;3229;42.674;23.282;2023-12-20T04:15:10;40.93;;;22.93;;
6392;SDS011;3229;42.674;23.282;2023-12-20T04:17:37;40.40;;;24.47;;
6392;SDS011;3229;42.674;23.282;2023-12-20T04:20:04;36.20;;;23.37;;
6392;SDS011;3229;42.674;23.282;2023-12-20T04:22:33;41.17;;;22.60;;
6392;SDS011;3229;42.674;23.282;2023-12-20T04:25:00;38.83;;;24.73;;
6392;SDS011;3229;42.674;23.282;2023-12-20T04:27:27;40.73;;;25.97;;
6392;SDS011;3229;42.674;23.282;2023-12-20T04:29:53;41.47;;;24.30;;
6392;SDS011;3229;42.674;23.282;2023-12-20T04:32:20;43.53;;;25.90;;
6392;SDS011;3229;42.674;23.282;2023-12-20T04:34:47;36.90;;;24.13;;
6392;SDS011;3229;42.674;23.282;2023-12-20T04:37:14;47.10;;;26.90;;
6392;SDS011;3229;42.674;23.282;2023-12-20T04:39:42;40.50;;;24.93;;
6392;SDS011;3229;42.674;23.282;2023-12-20T04:42:08;41.80;;;26.07;;
6392;SDS011;3229;42.674;23.282;2023-12-20T04:44:35;43.30;;;24.47;;
6392;SDS011;3229;42.674;23.282;2023-12-20T04:47:02;44.60;;;25.23;;
6392;SDS011;3229;42.674;23.282;2023-12-20T04:49:29;41.00;;;25.63;;
6392;SDS011;3229;42.674;23.282;2023-12-20T04:51:56;37.33;;;24.90;;
6392;SDS011;3229;42.674;23.282;2023-12-20T04:54:22;41.23;;;25.50;;
6392;SDS011;3229;42.674;23.282;2023-12-20T04:56:50;45.60;;;27.50;;
6392;SDS011;3229;42.674;23.282;2023-12-20T04:59:17;45.13;;;27.03;;
6392;SDS011;3229;42.674;23.282;2023-12-20T05:01:44;44.67;;;27.20;;
6392;SDS011;3229;42.674;23.282;2023-12-20T05:04:11;42.30;;;25.97;;
6392;SDS011;3229;42.674;23.282;2023-12-20T05:06:37;48.80;;;27.23;;
6392;SDS011;3229;42.674;23.282;2023-12-20T05:09:04;43.40;;;28.13;;
6392;SDS011;3229;42.674;23.282;2023-12-20T05:11:31;48.20;;;28.27;;
6392;SDS011;3229;42.674;23.282;2023-12-20T05:13:59;41.30;;;26.80;;
6392;SDS011;3229;42.674;23.282;2023-12-20T05:16:26;40.53;;;26.67;;
6392;SDS011;3229;42.674;23.282;2023-12-20T05:18:53;48.63;;;28.67;;
6392;SDS011;3229;42.674;23.282;2023-12-20T05:21:19;45.03;;;27.77;;
6392;SDS011;3229;42.674;23.282;2023-12-20T05:23:46;41.30;;;27.03;;
6392;SDS011;3229;42.674;23.282;2023-12-20T05:26:13;43.43;;;26.60;;
6392;SDS011;3229;42.674;23.282;2023-12-20T05:28:40;43.83;;;26.57;;
6392;SDS011;3229;42.674;23.282;2023-12-20T05:31:08;46.43;;;27.87;;
6392;SDS011;3229;42.674;23.282;2023-12-20T05:33:34;46.67;;;26.83;;
6392;SDS011;3229;42.674;23.282;2023-12-20T05:36:01;41.90;;;27.30;;
6392;SDS011;3229;42.674;23.282;2023-12-20T05:38:29;42.57;;;25.93;;
6392;SDS011;3229;42.674;23.282;2023-12-20T05:40:55;47.03;;;27.37;;
6392;SDS011;3229;42.674;23.282;2023-12-20T05:43:23;47.13;;;28.17;;
6392;SDS011;3229;42.674;23.282;2023-12-20T05:45:49;46.67;;;27.47;;
6392;SDS011;3229;42.674;23.282;2023-12-20T05:48:17;46.37;;;28.33;;
6392;SDS011;3229;42.674;23.282;2023-12-20T05:50:44;51.13;;;27.20;;
6392;SDS011;3229;42.674;23.282;2023-12-20T05:53:11;44.63;;;28.40;;
6392;SDS011;3229;42.674;23.282;2023-12-20T05:55:38;45.23;;;28.17;;
6392;SDS011;3229;42.674;23.282;2023-12-20T05:58:05;49.17;;;28.53;;
6392;SDS011;3229;42.674;23.282;2023-12-20T06:00:32;51.93;;;29.33;;
6392;SDS011;3229;42.674;23.282;2023-12-20T06:02:58;46.37;;;27.90;;
6392;SDS011;3229;42.674;23.282;2023-12-20T06:05:26;47.63;;;29.03;;
6392;SDS011;3229;42.674;23.282;2023-12-20T06:07:53;50.03;;;29.60;;
6392;SDS011;3229;42.674;23.282;2023-12-20T06:10:21;50.37;;;27.70;;
6392;SDS011;3229;42.674;23.282;2023-12-20T06:12:48;50.77;;;30.20;;
6392;SDS011;3229;42.674;23.282;2023-12-20T06:15:16;50.00;;;29.87;;
6392;SDS011;3229;42.674;23.282;2023-12-20T06:17:43;55.97;;;31.83;;
6392;SDS011;3229;42.674;23.282;2023-12-20T06:20:10;54.13;;;29.43;;
6392;SDS011;3229;42.674;23.282;2023-12-20T06:22:38;52.53;;;29.93;;
6392;SDS011;3229;42.674;23.282;2023-12-20T06:25:05;52.30;;;29.20;;
6392;SDS011;3229;42.674;23.282;2023-12-20T06:27:32;49.03;;;30.80;;
6392;SDS011;3229;42.674;23.282;2023-12-20T06:29:59;58.10;;;31.00;;
6392;SDS011;3229;42.674;23.282;2023-12-20T06:32:25;57.67;;;32.23;;
6392;SDS011;3229;42.674;23.282;2023-12-20T06:34:54;51.57;;;29.37;;
6392;SDS011;3229;42.674;23.282;2023-12-20T06:37:20;53.90;;;30.53;;
6392;SDS011;3229;42.674;23.282;2023-12-20T06:39:49;59.97;;;32.80;;
6392;SDS011;3229;42.674;23.282;2023-12-20T06:42:15;49.70;;;30.27;;
6392;SDS011;3229;42.674;23.282;2023-12-20T06:44:42;56.47;;;30.20;;
6392;SDS011;3229;42.674;23.282;2023-12-20T06:47:09;53.90;;;30.77;;
6392;SDS011;3229;42.674;23.282;2023-12-20T06:49:36;54.70;;;31.33;;
6392;SDS011;3229;42.674;23.282;2023-12-20T06:52:03;67.03;;;33.60;;
6392;SDS011;3229;42.674;23.282;2023-12-20T06:54:30;65.13;;;34.00;;
6392;SDS011;3229;42.674;23.282;2023-12-20T06:56:58;57.87;;;32.80;;
6392;SDS011;3229;42.674;23.282;2023-12-20T06:59:25;55.30;;;32.90;;
6392;SDS011;3229;42.674;23.282;2023-12-20T07:01:52;60.13;;;32.53;;
6392;SDS011;3229;42.674;23.282;2023-12-20T07:04:19;70.93;;;35.37;;
6392;SDS011;3229;42.674;23.282;2023-12-20T07:06:47;61.47;;;34.77;;
6392;SDS011;3229;42.674;23.282;2023-12-20T07:09:16;60.03;;;34.37;;
6392;SDS011;3229;42.674;23.282;2023-12-20T07:11:43;60.73;;;35.03;;
6392;SDS011;3229;42.674;23.282;2023-12-20T07:14:11;62.60;;;35.63;;
6392;SDS011;3229;42.674;23.282;2023-12-20T07:16:38;65.13;;;34.77;;
6392;SDS011;3229;42.674;23.282;2023-12-20T07:19:05;66.47;;;36.90;;
6392;SDS011;3229;42.674;23.282;2023-12-20T07:21:32;68.63;;;35.97;;
6392;SDS011;3229;42.674;23.282;2023-12-20T07:23:59;63.60;;;33.13;;
6392;SDS011;3229;42.674;23.282;2023-12-20T07:26:26;62.03;;;33.97;;
6392;SDS011;3229;42.674;23.282;2023-12-20T07:28:52;64.67;;;36.10;;
6392;SDS011;3229;42.674;23.282;2023-12-20T07:31:21;71.77;;;36.40;;
6392;SDS011;3229;42.674;23.282;2023-12-20T07:33:49;64.03;;;37.33;;
6392;SDS011;3229;42.674;23.282;2023-12-20T07:36:16;68.37;;;38.53;;
6392;SDS011;3229;42.674;23.282;2023-12-20T07:38:43;73.67;;;39.27;;
6392;SDS011;3229;42.674;23.282;2023-12-20T07:41:09;76.80;;;37.97;;
6392;SDS011;3229;42.674;23.282;2023-12-20T07:43:36;74.33;;;40.13;;
6392;SDS011;3229;42.674;23.282;2023-12-20T07:46:06;76.33;;;39.10;;
6392;SDS011;3229;42.674;23.282;2023-12-20T07:48:35;77.73;;;39.77;;
6392;SDS011;3229;42.674;23.282;2023-12-20T07:51:02;71.17;;;40.17;;
6392;SDS011;3229;42.674;23.282;2023-12-20T07:53:30;79.40;;;40.23;;
6392;SDS011;3229;42.674;23.282;2023-12-20T07:55:57;79.27;;;41.70;;
6392;SDS011;3229;42.674;23.282;2023-12-20T07:58:24;78.80;;;40.93;;
6392;SDS011;3229;42.674;23.282;2023-12-20T08:00:51;78.10;;;42.07;;
6392;SDS011;3229;42.674;23.282;2023-12-20T08:03:17;75.20;;;41.83;;
6392;SDS011;3229;42.674;23.282;2023-12-20T08:05:46;83.87;;;43.67;;
6392;SDS011;3229;42.674;23.282;2023-12-20T08:08:12;82.47;;;44.70;;
6392;SDS011;3229;42.674;23.282;2023-12-20T08:10:39;85.13;;;43.13;;
6392;SDS011;3229;42.674;23.282;2023-12-20T08:13:06;86.07;;;43.47;;
6392;SDS011;3229;42.674;23.282;2023-12-20T08:15:33;81.27;;;42.80;;
6392;SDS011;3229;42.674;23.282;2023-12-20T08:18:00;80.27;;;44.03;;
6392;SDS011;3229;42.674;23.282;2023-12-20T08:20:27;78.33;;;41.70;;
6392;SDS011;3229;42.674;23.282;2023-12-20T08:22:55;80.27;;;42.33;;
6392;SDS011;3229;42.674;23.282;2023-12-20T08:25:22;81.40;;;44.20;;
6392;SDS011;3229;42.674;23.282;2023-12-20T08:27:48;85.13;;;44.43;;
6392;SDS011;3229;42.674;23.282;2023-12-20T08:30:15;81.27;;;43.20;;
6392;SDS011;3229;42.674;23.282;2023-12-20T08:32:45;84.87;;;44.37;;
6392;SDS011;3229;42.674;23.282;2023-12-20T08:35:12;79.90;;;42.20;;
6392;SDS011;3229;42.674;23.282;2023-12-20T08:37:39;85.57;;;43.57;;
6392;SDS011;3229;42.674;23.282;2023-12-20T08:40:08;83.33;;;42.90;;
6392;SDS011;3229;42.674;23.282;2023-12-20T08:42:35;87.57;;;44.30;;
6392;SDS011;3229;42.674;23.282;2023-12-20T08:45:02;82.53;;;43.40;;
6392;SDS011;3229;42.674;23.282;2023-12-20T08:47:30;76.00;;;42.37;;
6392;SDS011;3229;42.674;23.282;2023-12-20T08:49:56;78.53;;;46.40;;
6392;SDS011;3229;42.674;23.282;2023-12-20T08:52:25;82.40;;;43.97;;
6392;SDS011;3229;42.674;23.282;2023-12-20T08:54:52;92.33;;;46.80;;
6392;SDS011;3229;42.674;23.282;2023-12-20T08:57:20;85.97;;;46.70;;
6392;SDS011;3229;42.674;23.282;2023-12-20T08:59:48;83.30;;;45.67;;
6392;SDS011;3229;42.674;23.282;2023-12-20T09:02:15;89.30;;;45.07;;
6392;SDS011;3229;42.674;23.282;2023-12-20T09:04:42;84.83;;;44.83;;
6392;SDS011;3229;42.674;23.282;2023-12-20T09:07:20;83.20;;;45.50;;
6392;SDS011;3229;42.674;23.282;2023-12-20T09:15:37;87.77;;;45.77;;
6392;SDS011;3229;42.674;23.282;2023-12-20T09:23:15;85.83;;;46.90;;
6392;SDS011;3229;42.674;23.282;2023-12-20T09:25:43;96.20;;;50.70;;
6392;SDS011;3229;42.674;23.282;2023-12-20T09:28:10;94.17;;;50.03;;
6392;SDS011;3229;42.674;23.282;2023-12-20T09:30:38;92.90;;;48.60;;
6392;SDS011;3229;42.674;23.282;2023-12-20T09:33:05;89.60;;;48.93;;
6392;SDS011;3229;42.674;23.282;2023-12-20T09:45:54;91.00;;;51.30;;
6392;SDS011;3229;42.674;23.282;2023-12-20T09:48:27;93.60;;;48.77;;
6392;SDS011;3229;42.674;23.282;2023-12-20T09:50:54;99.20;;;49.13;;
6392;SDS011;3229;42.674;23.282;2023-12-20T09:53:22;93.43;;;51.60;;
6392;SDS011;3229;42.674;23.282;2023-12-20T09:55:54;99.73;;;51.27;;
6392;SDS011;3229;42.674;23.282;2023-12-20T09:58:24;106.43;;;54.90;;
6392;SDS011;3229;42.674;23.282;2023-12-20T10:00:51;97.33;;;51.60;;
6392;SDS011;3229;42.674;23.282;2023-12-20T10:03:22;92.50;;;49.90;;
6392;SDS011;3229;42.674;23.282;2023-12-20T10:05:52;97.97;;;51.73;;
6392;SDS011;3229;42.674;23.282;2023-12-20T10:08:22;99.83;;;51.33;;
6392;SDS011;3229;42.674;23.282;2023-12-20T10:10:50;97.60;;;53.07;;
6392;SDS011;3229;42.674;23.282;2023-12-20T10:13:17;95.07;;;53.37;;
6392;SDS011;3229;42.674;23.282;2023-12-20T10:15:44;94.00;;;52.20;;
6392;SDS011;3229;42.674;23.282;2023-12-20T10:18:13;97.67;;;51.87;;
6392;SDS011;3229;42.674;23.282;2023-12-20T10:20:40;96.80;;;52.27;;
6392;SDS011;3229;42.674;23.282;2023-12-20T10:23:07;99.03;;;51.17;;
6392;SDS011;3229;42.674;23.282;2023-12-20T10:25:34;95.50;;;53.50;;
6392;SDS011;3229;42.674;23.282;2023-12-20T10:28:10;95.57;;;52.87;;
6392;SDS011;3229;42.674;23.282;2023-12-20T10:30:38;91.70;;;50.97;;
6392;SDS011;3229;42.674;23.282;2023-12-20T10:33:06;101.97;;;54.83;;
6392;SDS011;3229;42.674;23.282;2023-12-20T10:35:35;92.90;;;52.97;;
6392;SDS011;3229;42.674;23.282;2023-12-20T10:38:03;93.50;;;52.03;;
6392;SDS011;3229;42.674;23.282;2023-12-20T10:40:31;101.37;;;53.50;;
6392;SDS011;3229;42.674;23.282;2023-12-20T10:43:01;101.53;;;53.53;;
6392;SDS011;3229;42.674;23.282;2023-12-20T10:45:29;98.57;;;53.70;;
6392;SDS011;3229;42.674;23.282;2023-12-20T10:47:56;95.40;;;52.60;;
6392;SDS011;3229;42.674;23.282;2023-12-20T10:50:25;95.97;;;51.50;;
6392;SDS011;3229;42.674;23.282;2023-12-20T10:52:54;99.77;;;54.27;;
6392;SDS011;3229;42.674;23.282;2023-12-20T10:55:21;92.93;;;53.43;;
6392;SDS011;3229;42.674;23.282;2023-12-20T10:57:49;97.47;;;54.73;;
6392;SDS011;3229;42.674;23.282;2023-12-20T11:00:17;96.73;;;55.00;;
6392;SDS011;3229;42.674;23.282;2023-12-20T11:02:45;89.33;;;51.90;;
6392;SDS011;3229;42.674;23.282;2023-12-20T11:05:15;87.43;;;51.80;;
6392;SDS011;3229;42.674;23.282;2023-12-20T11:07:52;95.97;;;53.50;;
6392;SDS011;3229;42.674;23.282;2023-12-20T11:10:25;100.50;;;54.37;;
6392;SDS011;3229;42.674;23.282;2023-12-20T11:12:57;96.70;;;53.27;;
6392;SDS011;3229;42.674;23.282;2023-12-20T11:15:29;96.23;;;53.40;;
6392;SDS011;3229;42.674;23.282;2023-12-20T11:17:56;97.07;;;54.97;;
6392;SDS011;3229;42.674;23.282;2023-12-20T11:20:24;92.27;;;53.80;;
6392;SDS011;3229;42.674;23.282;2023-12-20T11:23:03;102.27;;;55.30;;
6392;SDS011;3229;42.674;23.282;2023-12-20T11:28:15;87.53;;;50.50;;
6392;SDS011;3229;42.674;23.282;2023-12-20T11:30:46;92.87;;;54.33;;
6392;SDS011;3229;42.674;23.282;2023-12-20T11:33:14;99.20;;;56.03;;
6392;SDS011;3229;42.674;23.282;2023-12-20T11:35:41;100.93;;;54.27;;
6392;SDS011;3229;42.674;23.282;2023-12-20T11:38:10;98.63;;;54.37;;
6392;SDS011;3229;42.674;23.282;2023-12-20T11:40:37;102.47;;;56.00;;
6392;SDS011;3229;42.674;23.282;2023-12-20T11:43:03;96.77;;;55.40;;
6392;SDS011;3229;42.674;23.282;2023-12-20T11:45:31;96.13;;;55.10;;
6392;SDS011;3229;42.674;23.282;2023-12-20T11:47:58;105.27;;;56.73;;
6392;SDS011;3229;42.674;23.282;2023-12-20T11:50:25;100.33;;;56.80;;
6392;SDS011;3229;42.674;23.282;2023-12-20T11:52:53;116.20;;;59.93;;
6392;SDS011;3229;42.674;23.282;2023-12-20T11:55:22;100.10;;;57.73;;
6392;SDS011;3229;42.674;23.282;2023-12-20T11:57:50;99.97;;;57.27;;
6392;SDS011;3229;42.674;23.282;2023-12-20T12:00:17;102.43;;;55.40;;
6392;SDS011;3229;42.674;23.282;2023-12-20T12:02:54;101.50;;;57.43;;
6392;SDS011;3229;42.674;23.282;2023-12-20T12:05:21;110.13;;;58.10;;
6392;SDS011;3229;42.674;23.282;2023-12-20T12:07:48;101.50;;;57.60;;
6392;SDS011;3229;42.674;23.282;2023-12-20T12:10:15;102.63;;;56.70;;
6392;SDS011;3229;42.674;23.282;2023-12-20T12:12:43;99.33;;;56.77;;
6392;SDS011;3229;42.674;23.282;2023-12-20T12:15:10;96.90;;;55.87;;
6392;SDS011;3229;42.674;23.282;2023-12-20T12:17:37;96.00;;;54.00;;
6392;SDS011;3229;42.674;23.282;2023-12-20T12:20:05;90.33;;;54.57;;
6392;SDS011;3229;42.674;23.282;2023-12-20T12:22:33;85.57;;;52.23;;
6392;SDS011;3229;42.674;23.282;2023-12-20T12:25:09;90.03;;;53.47;;
6392;SDS011;3229;42.674;23.282;2023-12-20T12:27:38;90.37;;;52.47;;
6392;SDS011;3229;42.674;23.282;2023-12-20T12:30:08;93.53;;;50.53;;
6392;SDS011;3229;42.674;23.282;2023-12-20T12:32:38;85.83;;;51.30;;
6392;SDS011;3229;42.674;23.282;2023-12-20T12:35:05;90.83;;;51.00;;
6392;SDS011;3229;42.674;23.282;2023-12-20T12:37:34;85.63;;;50.67;;
6392;SDS011;3229;42.674;23.282;2023-12-20T12:40:01;83.17;;;48.73;;
6392;SDS011;3229;42.674;23.282;2023-12-20T12:42:30;97.30;;;50.60;;
6392;SDS011;3229;42.674;23.282;2023-12-20T12:44:57;84.10;;;48.63;;
6392;SDS011;3229;42.674;23.282;2023-12-20T12:47:25;87.87;;;49.10;;
6392;SDS011;3229;42.674;23.282;2023-12-20T12:49:52;83.33;;;48.60;;
6392;SDS011;3229;42.674;23.282;2023-12-20T12:52:19;90.10;;;49.07;;
6392;SDS011;3229;42.674;23.282;2023-12-20T12:54:46;86.73;;;47.77;;
6392;SDS011;3229;42.674;23.282;2023-12-20T12:57:13;84.27;;;48.00;;
6392;SDS011;3229;42.674;23.282;2023-12-20T12:59:41;79.67;;;48.57;;
6392;SDS011;3229;42.674;23.282;2023-12-20T13:02:09;84.70;;;49.20;;
6392;SDS011;3229;42.674;23.282;2023-12-20T13:04:37;80.83;;;48.30;;
6392;SDS011;3229;42.674;23.282;2023-12-20T13:07:04;82.33;;;46.63;;
6392;SDS011;3229;42.674;23.282;2023-12-20T13:09:30;94.97;;;49.37;;
6392;SDS011;3229;42.674;23.282;2023-12-20T13:11:57;79.83;;;44.67;;
6392;SDS011;3229;42.674;23.282;2023-12-20T13:14:25;86.70;;;47.93;;
6392;SDS011;3229;42.674;23.282;2023-12-20T13:16:51;83.50;;;47.90;;
6392;SDS011;3229;42.674;23.282;2023-12-20T13:19:18;77.50;;;46.50;;
6392;SDS011;3229;42.674;23.282;2023-12-20T13:21:46;80.40;;;47.23;;
6392;SDS011;3229;42.674;23.282;2023-12-20T13:24:13;76.87;;;46.70;;
6392;SDS011;3229;42.674;23.282;2023-12-20T13:26:40;75.47;;;44.83;;
6392;SDS011;3229;42.674;23.282;2023-12-20T13:29:07;80.60;;;48.00;;
6392;SDS011;3229;42.674;23.282;2023-12-20T13:31:34;87.60;;;48.17;;
6392;SDS011;3229;42.674;23.282;2023-12-20T13:34:02;79.83;;;47.00;;
6392;SDS011;3229;42.674;23.282;2023-12-20T13:36:29;80.27;;;47.33;;
6392;SDS011;3229;42.674;23.282;2023-12-20T13:38:57;79.13;;;47.63;;
6392;SDS011;3229;42.674;23.282;2023-12-20T13:41:24;83.93;;;46.87;;
6392;SDS011;3229;42.674;23.282;2023-12-20T13:43:51;81.67;;;46.90;;
6392;SDS011;3229;42.674;23.282;2023-12-20T13:46:17;86.47;;;48.03;;
6392;SDS011;3229;42.674;23.282;2023-12-20T13:48:44;84.00;;;48.00;;
6392;SDS011;3229;42.674;23.282;2023-12-20T13:51:11;85.27;;;47.33;;
6392;SDS011;3229;42.674;23.282;2023-12-20T13:53:38;78.43;;;46.73;;
6392;SDS011;3229;42.674;23.282;2023-12-20T13:56:06;84.37;;;48.13;;
6392;SDS011;3229;42.674;23.282;2023-12-20T13:58:33;90.47;;;48.93;;
6392;SDS011;3229;42.674;23.282;2023-12-20T14:01:00;81.93;;;47.50;;
6392;SDS011;3229;42.674;23.282;2023-12-20T14:03:27;78.93;;;46.03;;
6392;SDS011;3229;42.674;23.282;2023-12-20T14:05:53;85.93;;;48.13;;
6392;SDS011;3229;42.674;23.282;2023-12-20T14:08:21;77.40;;;47.43;;
6392;SDS011;3229;42.674;23.282;2023-12-20T14:10:48;82.07;;;47.17;;
6392;SDS011;3229;42.674;23.282;2023-12-20T14:13:16;75.80;;;46.63;;
6392;SDS011;3229;42.674;23.282;2023-12-20T14:15:43;89.30;;;49.57;;
6392;SDS011;3229;42.674;23.282;2023-12-20T14:18:12;82.27;;;48.17;;
6392;SDS011;3229;42.674;23.282;2023-12-20T14:20:40;84.37;;;47.70;;
6392;SDS011;3229;42.674;23.282;2023-12-20T14:23:07;87.60;;;48.87;;
6392;SDS011;3229;42.674;23.282;2023-12-20T14:25:34;83.17;;;47.93;;
6392;SDS011;3229;42.674;23.282;2023-12-20T14:28:02;83.50;;;48.13;;
6392;SDS011;3229;42.674;23.282;2023-12-20T14:30:30;87.13;;;48.53;;
6392;SDS011;3229;42.674;23.282;2023-12-20T14:32:57;79.33;;;46.70;;
6392;SDS011;3229;42.674;23.282;2023-12-20T14:35:24;83.47;;;48.37;;
6392;SDS011;3229;42.674;23.282;2023-12-20T14:37:51;84.90;;;48.23;;
6392;SDS011;3229;42.674;23.282;2023-12-20T14:40:18;83.23;;;48.37;;
6392;SDS011;3229;42.674;23.282;2023-12-20T14:42:45;89.43;;;50.57;;
6392;SDS011;3229;42.674;23.282;2023-12-20T14:45:12;93.93;;;53.10;;
6392;SDS011;3229;42.674;23.282;2023-12-20T14:47:42;102.73;;;52.00;;
6392;SDS011;3229;42.674;23.282;2023-12-20T14:50:09;98.03;;;56.30;;
6392;SDS011;3229;42.674;23.282;2023-12-20T14:52:42;103.03;;;55.20;;
6392;SDS011;3229;42.674;23.282;2023-12-20T14:55:10;98.90;;;56.63;;
6392;SDS011;3229;42.674;23.282;2023-12-20T14:57:37;107.40;;;58.77;;
6392;SDS011;3229;42.674;23.282;2023-12-20T15:00:04;108.80;;;59.53;;